createdAt,value
2024-05-09T00:04:25.693Z,99000
2024-05-09T00:16:25.587Z,99000
2024-05-09T00:28:25.587Z,99000
2024-05-09T00:40:31.247Z,99000
2024-05-09T00:52:25.459Z,99000
2024-05-09T01:04:25.538Z,98990
2024-05-09T01:16:25.548Z,98980
2024-05-09T01:28:25.449Z,98990
2024-05-09T01:40:35.420Z,98980
2024-05-09T01:52:25.498Z,98990
2024-05-09T02:04:25.799Z,98990
2024-05-09T02:16:25.474Z,98980
2024-05-09T02:28:25.454Z,98980
2024-05-09T02:40:33.738Z,98970
2024-05-09T02:52:25.446Z,98970
2024-05-09T03:04:25.521Z,98970
2024-05-09T03:16:25.573Z,98980
2024-05-09T03:28:25.505Z,98980
2024-05-09T03:40:28.967Z,98980
2024-05-09T03:52:25.459Z,98960
2024-05-09T04:04:25.533Z,98970
2024-05-09T04:16:25.446Z,98990
2024-05-09T04:28:25.454Z,98990
2024-05-09T04:40:32.871Z,98990
2024-05-09T04:52:25.452Z,98990
2024-05-09T05:04:25.508Z,99000
2024-05-09T05:16:25.451Z,99000
2024-05-09T05:28:25.449Z,99010
2024-05-09T05:40:33.098Z,99000
2024-05-09T05:52:25.457Z,99010
2024-05-09T06:04:25.553Z,99010
2024-05-09T06:16:25.454Z,99020
2024-05-09T06:28:25.465Z,99030
2024-05-09T06:40:30.030Z,99040
2024-05-09T06:52:25.450Z,99030
2024-05-09T07:04:25.677Z,99040
2024-05-09T07:16:25.473Z,99040
2024-05-09T07:28:25.469Z,99040
2024-05-09T07:40:32.991Z,99030
2024-05-09T08:04:26.671Z,99020
2024-05-09T08:16:25.549Z,99000
2024-05-09T08:28:25.522Z,99000
2024-05-09T08:40:32.944Z,98990
2024-05-09T08:52:26.562Z,98980
2024-05-09T09:04:25.567Z,98990
2024-05-09T09:16:25.609Z,98970
2024-05-09T09:28:25.474Z,98970
2024-05-09T09:52:25.554Z,98960
2024-05-09T10:04:25.706Z,98950
2024-05-09T10:16:25.640Z,98930
2024-05-09T10:28:25.453Z,98920
2024-05-09T10:40:31.045Z,98910
2024-05-09T10:52:25.500Z,98900
2024-05-09T11:04:25.572Z,98900
2024-05-09T11:16:25.507Z,98870
2024-05-09T11:28:25.501Z,98860
2024-05-09T11:40:32.020Z,98870
2024-05-09T11:52:25.540Z,98850
2024-05-09T12:04:25.635Z,98840
2024-05-09T12:16:25.672Z,98830
2024-05-09T12:28:25.501Z,98820
2024-05-09T12:40:33.442Z,98810
2024-05-09T12:52:25.455Z,98800
2024-05-09T13:04:26.664Z,98790
2024-05-09T13:16:25.644Z,98780
2024-05-09T13:28:25.674Z,98760
2024-05-09T13:40:32.666Z,98760
2024-05-09T13:52:25.502Z,98750
2024-05-09T14:04:25.714Z,98740
2024-05-09T14:16:25.618Z,98720
2024-05-09T14:28:25.536Z,98700
2024-05-09T14:40:36.246Z,98710
2024-05-09T14:52:25.443Z,98700
2024-05-09T15:04:25.669Z,98680
2024-05-09T15:16:25.638Z,98670
2024-05-09T15:28:25.609Z,98670
2024-05-09T15:40:34.994Z,98660
2024-05-09T15:52:25.450Z,98650
2024-05-09T16:04:25.649Z,98630
2024-05-09T16:16:25.579Z,98630
2024-05-09T16:28:27.083Z,98620
2024-05-09T16:40:34.414Z,98620
2024-05-09T16:52:25.489Z,98610
2024-05-09T17:04:25.560Z,98610
2024-05-09T17:16:25.558Z,98610
2024-05-09T17:28:25.515Z,98620
2024-05-09T17:40:31.529Z,98620
2024-05-09T17:52:25.499Z,98620
2024-05-09T18:04:25.601Z,98620
2024-05-09T18:16:25.614Z,98630
2024-05-09T18:28:25.666Z,98610
2024-05-09T18:40:32.398Z,98620
2024-05-09T18:52:25.454Z,98620
2024-05-09T19:04:25.716Z,98630
2024-05-09T19:16:25.521Z,98630
2024-05-09T19:28:25.697Z,98640
2024-05-09T19:40:31.101Z,98650
2024-05-09T19:52:25.571Z,98650
2024-05-09T20:04:25.702Z,98660
2024-05-09T20:16:25.552Z,98670
2024-05-09T20:28:25.776Z,98680
2024-05-09T20:40:31.649Z,98670
2024-05-09T20:52:25.567Z,98670
2024-05-09T21:04:25.660Z,98670
2024-05-09T21:16:25.671Z,98670
2024-05-09T21:28:25.713Z,98680
2024-05-09T21:40:31.674Z,98690
2024-05-09T21:52:25.577Z,98680
2024-05-09T22:04:25.645Z,98670
2024-05-09T22:16:25.717Z,98660
2024-05-09T22:28:25.494Z,98660
2024-05-09T22:40:37.893Z,98670
2024-05-09T22:52:25.461Z,98660
2024-05-09T23:04:25.614Z,98660
2024-05-09T23:16:25.687Z,98660
2024-05-09T23:28:25.756Z,98650
2024-05-09T23:40:35.011Z,98650
2024-05-09T23:52:25.610Z,98650
